createdAt,value
2023-04-13T00:02:35.946Z,65.4
2023-04-13T00:08:28.904Z,65.3
2023-04-13T00:14:21.229Z,65.3
2023-04-13T00:20:13.407Z,65.2
2023-04-13T00:26:04.500Z,65.1
2023-04-13T00:31:56.466Z,65
2023-04-13T00:37:47.758Z,65
2023-04-13T00:43:38.742Z,64.9
2023-04-13T00:49:31.442Z,64.9
2023-04-13T00:55:23.003Z,64.8
2023-04-13T01:01:14.046Z,64.8
2023-04-13T01:07:07.830Z,64.7
2023-04-13T01:12:42.854Z,64.6
2023-04-13T01:25:20.888Z,64.5
2023-04-13T01:31:12.432Z,64.4
2023-04-13T01:36:48.896Z,64.4
2023-04-13T01:42:40.541Z,64.3
2023-04-13T01:48:31.856Z,64.3
2023-04-13T01:54:07.769Z,64.2
2023-04-13T01:59:59.637Z,64.1
2023-04-13T02:05:53.798Z,64.1
2023-04-13T02:11:44.666Z,64
2023-04-13T02:17:36.415Z,63.9
2023-04-13T02:23:27.126Z,63.9
2023-04-13T02:29:19.200Z,63.9
2023-04-13T02:35:11.378Z,63.8
2023-04-13T02:41:02.591Z,63.8
2023-04-13T02:46:54.098Z,63.7
2023-04-13T02:52:45.382Z,63.6
2023-04-13T02:58:36.318Z,63.6
2023-04-13T03:04:28.690Z,63.5
2023-04-13T03:10:22.033Z,63.4
2023-04-13T03:15:58.810Z,63.4
2023-04-13T03:21:49.551Z,63.3
2023-04-13T03:27:42.417Z,63.3
2023-04-13T03:33:34.133Z,63.3
2023-04-13T03:39:26.344Z,63.1
2023-04-13T03:45:18.865Z,63.1
2023-04-13T03:50:55.135Z,63
2023-04-13T03:56:46.587Z,62.9
2023-04-13T04:02:39.068Z,62.9
2023-04-13T04:08:31.916Z,62.9
2023-04-13T04:14:26.520Z,62.8
2023-04-13T04:20:21.365Z,62.8
2023-04-13T04:26:12.958Z,62.7
2023-04-13T04:32:04.279Z,62.6
2023-04-13T04:37:57.411Z,62.6
2023-04-13T04:43:33.530Z,62.5
2023-04-13T04:49:09.460Z,62.4
2023-04-13T04:55:01.361Z,62.4
2023-04-13T05:00:53.108Z,62.3
2023-04-13T05:06:30.169Z,62.3
2023-04-13T05:12:22.493Z,62.2
2023-04-13T05:18:14.147Z,62.2
2023-04-13T05:24:07.852Z,62.1
2023-04-13T05:30:02.665Z,62.1
2023-04-13T05:35:53.818Z,62
2023-04-13T05:41:44.957Z,61.9
2023-04-13T05:47:38.315Z,61.9
2023-04-13T05:53:29.996Z,61.8
2023-04-13T05:59:20.525Z,61.8
2023-04-13T06:05:17.471Z,61.7
2023-04-13T06:11:09.135Z,61.6
2023-04-13T06:17:01.229Z,61.6
2023-04-13T06:22:54.285Z,61.6
2023-04-13T06:28:46.160Z,61.5
2023-04-13T06:34:38.255Z,61.4
2023-04-13T06:40:33.751Z,61.4
2023-04-13T06:46:20.234Z,61.3
2023-04-13T06:52:11.731Z,61.3
2023-04-13T06:58:03.437Z,61.2
2023-04-13T07:04:10.105Z,61.1
2023-04-13T07:10:04.411Z,61.1
2023-04-13T07:15:57.369Z,61
2023-04-13T07:21:33.664Z,60.9
2023-04-13T07:27:23.655Z,60.9
2023-04-13T07:33:20.474Z,60.9
2023-04-13T07:39:15.102Z,60.8
2023-04-13T07:45:06.235Z,60.8
2023-04-13T07:50:58.814Z,60.7
2023-04-13T07:56:50.072Z,60.6
2023-04-13T08:02:41.025Z,60.6
2023-04-13T08:08:37.925Z,60.5
2023-04-13T08:14:14.236Z,60.4
2023-04-13T08:20:08.486Z,60.4
2023-04-13T08:26:02.859Z,60.4
2023-04-13T08:31:55.727Z,60.3
2023-04-13T08:37:47.136Z,60.3
2023-04-13T08:43:41.201Z,60.2
2023-04-13T08:49:42.798Z,60.2
2023-04-13T08:55:17.881Z,60.1
2023-04-13T09:01:17.726Z,60.1
2023-04-13T09:07:26.472Z,60
2023-04-13T09:13:17.188Z,59.9
2023-04-13T09:18:54.210Z,59.9
2023-04-13T09:24:44.875Z,59.5
2023-04-13T09:33:05.603Z,59.4
2023-04-13T09:38:35.190Z,59.3
2023-04-13T09:43:56.480Z,59.3
2023-04-13T09:49:17.249Z,59.3
2023-04-13T09:54:54.563Z,59.3
2023-04-13T10:00:30.506Z,59.2
2023-04-13T10:06:32.662Z,59.2
2023-04-13T10:12:12.073Z,59.1
2023-04-13T10:18:13.177Z,59.1
2023-04-13T10:30:15.775Z,59
2023-04-13T10:35:59.336Z,59
2023-04-13T10:41:51.229Z,58.9
2023-04-13T10:47:46.353Z,59.1
2023-04-13T10:53:07.424Z,59.2
2023-04-13T10:58:48.900Z,59.5
2023-04-13T11:05:11.002Z,59.8
2023-04-13T11:10:38.959Z,60.1
2023-04-13T11:16:16.762Z,60.4
2023-04-13T11:21:57.983Z,60.7
2023-04-13T11:27:34.395Z,61
2023-04-13T11:32:54.121Z,61.3
2023-04-13T11:38:30.868Z,61.6
2023-04-13T11:44:20.934Z,61.8
2023-04-13T11:50:13.616Z,62.1
2023-04-13T11:56:26.910Z,62.3
2023-04-13T12:02:33.597Z,62.4
2023-04-13T12:08:57.817Z,62.4
2023-04-13T12:18:18.067Z,62.5
2023-04-13T12:24:29.642Z,62.7
2023-04-13T12:30:44.461Z,62.8
2023-04-13T12:36:36.119Z,62.9
2023-04-13T12:42:29.248Z,62.9
2023-04-13T12:48:20.884Z,63.1
2023-04-13T12:54:13.782Z,63.1
2023-04-13T13:00:05.669Z,63.1
2023-04-13T13:06:06.056Z,63.1
2023-04-13T13:12:09.040Z,63.1
2023-04-13T13:18:01.557Z,63.1
2023-04-13T13:24:07.925Z,63.1
2023-04-13T13:31:21.143Z,63.1
2023-04-13T13:37:13.172Z,63.1
2023-04-13T13:43:06.536Z,63
2023-04-13T13:48:28.210Z,63
2023-04-13T13:54:37.404Z,62.9
2023-04-13T14:00:28.400Z,62.9
2023-04-13T14:06:05.850Z,62.9
2023-04-13T14:11:57.270Z,62.8
2023-04-13T14:17:46.809Z,62.8
2023-04-13T14:23:47.699Z,62.8
2023-04-13T14:29:38.709Z,62.7
2023-04-13T14:35:29.809Z,62.6
2023-04-13T14:41:24.098Z,62.6
2023-04-13T14:47:16.221Z,62.6
2023-04-13T14:53:08.181Z,62.6
2023-04-13T14:59:00.673Z,62.5
2023-04-13T15:04:55.111Z,62.4
2023-04-13T15:10:48.953Z,62.4
2023-04-13T15:16:43.229Z,62.3
2023-04-13T15:22:36.154Z,62.3
2023-04-13T15:28:28.012Z,62.3
2023-04-13T15:34:20.632Z,62.2
2023-04-13T15:40:12.972Z,62.1
2023-04-13T15:46:04.699Z,62.1
2023-04-13T15:51:57.076Z,62.1
2023-04-13T15:57:48.552Z,62
2023-04-13T16:03:41.804Z,62
2023-04-13T16:09:36.995Z,61.9
2023-04-13T16:15:43.291Z,61.9
2023-04-13T16:21:36.064Z,61.8
2023-04-13T16:27:28.470Z,61.8
2023-04-13T16:33:22.102Z,61.8
2023-04-13T16:39:29.612Z,61.7
2023-04-13T16:45:21.374Z,61.7
2023-04-13T16:50:58.644Z,61.6
2023-04-13T16:56:50.842Z,61.6
2023-04-13T17:03:01.678Z,61.5
2023-04-13T17:08:54.574Z,61.4
2023-04-13T17:14:30.561Z,61.4
2023-04-13T17:20:08.118Z,61.4
2023-04-13T17:26:00.174Z,61.3
2023-04-13T17:31:52.397Z,61.3
2023-04-13T17:37:47.919Z,61.3
2023-04-13T17:43:40.436Z,61.2
2023-04-13T17:49:33.154Z,61.1
2023-04-13T17:55:25.357Z,61.1
2023-04-13T18:01:19.313Z,61
2023-04-13T18:06:59.631Z,61
2023-04-13T18:12:52.978Z,60.9
2023-04-13T18:18:14.934Z,60.9
2023-04-13T18:23:52.703Z,60.9
2023-04-13T18:29:14.034Z,60.8
2023-04-13T18:34:52.671Z,60.8
2023-04-13T18:40:44.223Z,60.8
2023-04-13T18:46:05.504Z,60.7
2023-04-13T18:51:42.150Z,60.6
2023-04-13T18:57:18.754Z,60.6
2023-04-13T19:03:12.809Z,60.6
2023-04-13T19:08:53.169Z,60.5
2023-04-13T19:14:45.027Z,60.4
2023-04-13T19:20:37.676Z,60.4
2023-04-13T19:26:31.479Z,60.3
2023-04-13T19:32:24.064Z,60.3
2023-04-13T19:38:01.911Z,60.3
2023-04-13T19:43:54.569Z,60.2
2023-04-13T19:49:47.337Z,60.1
2023-04-13T19:55:39.784Z,60.1
2023-04-13T20:01:32.415Z,60.1
2023-04-13T20:07:25.978Z,60
2023-04-13T20:13:17.769Z,59.9
2023-04-13T20:19:10.310Z,59.9
2023-04-13T20:25:03.077Z,59.9
2023-04-13T20:30:57.559Z,59.8
2023-04-13T20:36:50.004Z,59.8
2023-04-13T20:42:26.839Z,59.7
2023-04-13T20:49:05.456Z,59.7
2023-04-13T20:54:56.968Z,59.6
2023-04-13T21:00:48.985Z,59.6
2023-04-13T21:06:42.492Z,59.6
2023-04-13T21:12:34.973Z,59.5
2023-04-13T21:18:27.979Z,59.4
2023-04-13T21:24:22.692Z,59.4
2023-04-13T21:30:14.304Z,59.3
2023-04-13T21:35:50.100Z,59.3
2023-04-13T21:41:35.964Z,59.3
2023-04-13T21:47:35.262Z,59.3
2023-04-13T21:53:26.698Z,59.2
2023-04-13T21:59:21.165Z,59.1
2023-04-13T22:05:15.388Z,59.1
2023-04-13T22:11:20.437Z,59
2023-04-13T22:17:14.172Z,59
2023-04-13T22:23:06.554Z,58.9
2023-04-13T22:28:42.751Z,58.9
2023-04-13T22:34:35.410Z,58.9
2023-04-13T22:40:27.312Z,58.8
2023-04-13T22:46:18.449Z,58.8
2023-04-13T22:52:10.157Z,58.7
2023-04-13T22:58:01.943Z,58.7
2023-04-13T23:03:39.592Z,58.6
2023-04-13T23:15:11.948Z,58.5
2023-04-13T23:20:48.814Z,58.5
2023-04-13T23:26:41.292Z,58.4
2023-04-13T23:32:32.964Z,58.4
2023-04-13T23:38:25.026Z,58.3
2023-04-13T23:44:16.055Z,58.3
2023-04-13T23:50:08.419Z,58.3
2023-04-13T23:55:59.807Z,58.3
